Kenn, Washington
Current Conditions -  °F | °C
As of 1:53 PM on Sunday 23 Nov 2014 (Local Time) from KPSC Reporting Station
Overcast Overcast  
Wind Chill: 54°   Ceiling: 6000
Heat Index: 54°   Visibility: 10mi
Dew Point: 38°   Wind: 9mph
Humidity: 55%   Direction: 240°WSW
Pressure: 30.11"   Gusts: 20mph
Location:  46.2117°N, 119.173°W
Report Text: KPSC 232153Z 24008G17KT 10SM OVC060 12/03 A3011 RMK AO2 SLP197 T01220033
Loading
Personal Weather Stations






























Interactive Weather Map New forecast layout! Learn more

10-Day Weather Forecast

Advertisements
Track Severe Weather on mobile